createdAt,value
2023-01-03T00:01:59.157Z,102152.75
2023-01-03T00:04:25.719Z,102148.38
2023-01-03T00:06:53.550Z,102157.47
2023-01-03T00:09:22.578Z,102153.88
2023-01-03T00:12:09.388Z,102161.03
2023-01-03T00:14:38.329Z,102162.38
2023-01-03T00:17:06.378Z,102161.41
2023-01-03T00:19:38.728Z,102156.25
2023-01-03T00:22:05.558Z,102154.44
2023-01-03T00:24:32.794Z,102166.06
2023-01-03T00:26:59.757Z,102157.00
2023-01-03T00:29:27.010Z,102155.59
2023-01-03T00:31:53.730Z,102167.56
2023-01-03T00:34:20.202Z,102164.13
2023-01-03T00:36:46.734Z,102170.34
2023-01-03T00:39:13.373Z,102168.63
2023-01-03T00:41:40.264Z,102173.00
2023-01-03T00:44:06.830Z,102176.34
2023-01-03T00:46:33.616Z,102189.56
2023-01-03T00:49:00.212Z,102187.97
2023-01-03T00:51:28.937Z,102192.47
2023-01-03T00:53:57.545Z,102195.09
2023-01-03T00:56:27.802Z,102195.00
2023-01-03T00:58:54.964Z,102193.84
2023-01-03T01:01:26.112Z,102191.28
2023-01-03T01:03:56.804Z,102203.50
2023-01-03T01:06:26.827Z,102200.97
2023-01-03T01:08:54.965Z,102207.28
2023-01-03T01:11:22.048Z,102211.06
2023-01-03T01:13:49.626Z,102214.41
2023-01-03T01:16:19.663Z,102217.53
2023-01-03T01:18:48.527Z,102213.59
2023-01-03T01:21:17.814Z,102220.94
2023-01-03T01:23:45.866Z,102208.44
2023-01-03T01:26:18.462Z,102215.81
2023-01-03T01:28:45.087Z,102213.94
2023-01-03T01:31:15.154Z,102222.31
2023-01-03T01:33:41.631Z,102219.69
2023-01-03T01:36:42.173Z,102222.09
2023-01-03T01:39:13.179Z,102227.28
2023-01-03T01:41:59.107Z,102225.44
2023-01-03T01:44:49.697Z,102241.28
2023-01-03T01:47:47.133Z,102239.00
2023-01-03T01:50:31.720Z,102247.50
2023-01-03T01:53:11.710Z,102237.97
2023-01-03T01:55:45.323Z,102247.16
2023-01-03T01:58:12.718Z,102252.06
2023-01-03T02:00:41.058Z,102250.00
2023-01-03T02:03:07.869Z,102260.81
2023-01-03T02:05:37.806Z,102253.03
2023-01-03T02:08:05.065Z,102258.53
2023-01-03T02:10:58.844Z,102248.75
2023-01-03T02:13:56.185Z,102261.41
2023-01-03T02:17:00.369Z,102266.34
2023-01-03T02:19:51.249Z,102271.97
2023-01-03T02:22:32.933Z,102276.56
2023-01-03T02:25:14.757Z,102274.75
2023-01-03T02:28:00.170Z,102273.94
2023-01-03T02:30:37.455Z,102277.72
2023-01-03T02:33:41.884Z,102276.03
2023-01-03T02:36:26.671Z,102280.59
2023-01-03T02:38:55.747Z,102290.59
2023-01-03T02:41:33.964Z,102283.13
2023-01-03T02:44:10.578Z,102297.94
2023-01-03T02:47:06.528Z,102289.69
2023-01-03T02:49:44.060Z,102290.03
2023-01-03T02:52:33.058Z,102280.94
2023-01-03T02:55:10.072Z,102282.78
2023-01-03T02:57:42.357Z,102276.47
2023-01-03T03:00:14.961Z,102286.25
2023-01-03T03:02:48.557Z,102278.31
2023-01-03T03:05:22.774Z,102290.84
2023-01-03T03:07:49.408Z,102285.41
2023-01-03T03:10:34.513Z,102290.16
2023-01-03T03:13:14.786Z,102286.81
2023-01-03T03:16:07.311Z,102279.34
2023-01-03T03:18:44.083Z,102285.97
2023-01-03T03:21:34.296Z,102288.13
2023-01-03T03:24:27.906Z,102286.63
2023-01-03T03:26:56.601Z,102281.25
2023-01-03T03:29:23.165Z,102289.59
2023-01-03T03:31:52.119Z,102298.34
2023-01-03T03:34:25.775Z,102286.16
2023-01-03T03:37:03.127Z,102299.59
2023-01-03T03:39:51.019Z,102296.47
2023-01-03T03:42:46.978Z,102295.31
2023-01-03T03:45:13.419Z,102287.75
2023-01-03T03:47:53.038Z,102291.38
2023-01-03T03:50:35.821Z,102293.88
2023-01-03T03:53:06.909Z,102291.38
2023-01-03T03:55:36.696Z,102296.06
2023-01-03T03:58:07.837Z,102300.63
2023-01-03T04:00:38.766Z,102305.22
2023-01-03T04:03:07.056Z,102297.97
2023-01-03T04:05:39.276Z,102301.38
2023-01-03T04:08:06.061Z,102297.78
2023-01-03T04:10:37.492Z,102309.91
2023-01-03T04:13:04.753Z,102299.88
2023-01-03T04:15:31.241Z,102296.97
2023-01-03T04:17:57.702Z,102308.13
2023-01-03T04:20:24.152Z,102311.88
2023-01-03T04:22:50.648Z,102305.13
2023-01-03T04:25:17.119Z,102316.47
2023-01-03T04:27:43.572Z,102315.31
2023-01-03T04:30:11.513Z,102320.00
2023-01-03T04:32:38.391Z,102314.50
2023-01-03T04:35:05.319Z,102312.22
2023-01-03T04:37:31.898Z,102314.03
2023-01-03T04:39:58.413Z,102312.28
2023-01-03T04:42:43.562Z,102322.81
2023-01-03T04:45:10.876Z,102328.81
2023-01-03T04:47:37.326Z,102322.69
2023-01-03T04:50:04.048Z,102325.13
2023-01-03T04:52:30.606Z,102322.69
2023-01-03T04:54:57.030Z,102323.03
2023-01-03T04:57:23.489Z,102331.97
2023-01-03T04:59:49.937Z,102333.56
2023-01-03T05:02:16.441Z,102335.19
2023-01-03T05:04:43.153Z,102336.19
2023-01-03T05:07:09.718Z,102338.13
2023-01-03T05:09:36.212Z,102330.81
2023-01-03T05:12:02.696Z,102328.59
2023-01-03T05:14:29.125Z,102318.75
2023-01-03T05:16:55.619Z,102326.19
2023-01-03T05:19:22.135Z,102325.91
2023-01-03T05:22:07.413Z,102325.91
2023-01-03T05:24:56.704Z,102332.09
2023-01-03T05:27:23.734Z,102322.69
2023-01-03T05:29:52.826Z,102324.97
2023-01-03T05:32:19.410Z,102325.47
2023-01-03T05:34:45.914Z,102328.56
2023-01-03T05:37:12.543Z,102323.41
2023-01-03T05:39:39.023Z,102322.78
2023-01-03T05:42:05.750Z,102330.88
2023-01-03T05:44:34.186Z,102332.31
2023-01-03T05:47:03.294Z,102333.47
2023-01-03T05:49:29.833Z,102326.69
2023-01-03T05:51:56.507Z,102327.22
2023-01-03T05:54:23.020Z,102334.16
2023-01-03T05:56:51.076Z,102327.88
2023-01-03T05:59:18.727Z,102335.31
2023-01-03T06:01:45.413Z,102331.63
2023-01-03T06:04:12.126Z,102343.78
2023-01-03T06:06:38.664Z,102336.19
2023-01-03T06:09:05.446Z,102341.53
2023-01-03T06:11:32.007Z,102331.72
2023-01-03T06:13:58.496Z,102344.66
2023-01-03T06:16:43.657Z,102341.06
2023-01-03T06:19:10.271Z,102338.53
2023-01-03T06:21:37.074Z,102336.41
2023-01-03T06:24:04.433Z,102333.31
2023-01-03T06:26:31.012Z,102327.16
2023-01-03T06:28:58.508Z,102323.91
2023-01-03T06:31:25.065Z,102331.19
2023-01-03T06:33:51.737Z,102322.16
2023-01-03T06:36:20.471Z,102318.91
2023-01-03T06:38:46.964Z,102322.81
2023-01-03T06:41:14.375Z,102321.22
2023-01-03T06:43:41.821Z,102329.78
2023-01-03T06:46:29.072Z,102327.03
2023-01-03T06:49:14.115Z,102337.41
2023-01-03T06:51:59.603Z,102329.50
2023-01-03T06:54:29.420Z,102341.13
2023-01-03T06:56:55.911Z,102340.47
2023-01-03T06:59:22.885Z,102339.47
2023-01-03T07:01:51.213Z,102351.63
2023-01-03T07:04:18.750Z,102350.16
2023-01-03T07:06:45.440Z,102358.34
2023-01-03T07:09:12.386Z,102342.66
2023-01-03T07:11:39.673Z,102349.66
2023-01-03T07:14:07.893Z,102342.34
2023-01-03T07:16:39.888Z,102335.38
2023-01-03T07:19:08.521Z,102331.47
2023-01-03T07:21:35.729Z,102335.03
2023-01-03T07:24:03.906Z,102335.66
2023-01-03T07:26:32.190Z,102344.84
2023-01-03T07:28:59.867Z,102342.25
2023-01-03T07:31:26.549Z,102346.94
2023-01-03T07:33:53.453Z,102345.47
2023-01-03T07:36:21.287Z,102344.66
2023-01-03T07:38:48.135Z,102353.38
2023-01-03T07:41:15.636Z,102348.38
2023-01-03T07:43:47.999Z,102351.56
2023-01-03T07:46:23.397Z,102348.69
2023-01-03T07:48:52.054Z,102347.88
2023-01-03T07:51:20.814Z,102341.59
2023-01-03T07:53:50.992Z,102337.88
2023-01-03T07:56:20.002Z,102349.19
2023-01-03T07:58:47.992Z,102346.44
2023-01-03T08:01:17.297Z,102345.28
2023-01-03T08:03:44.780Z,102343.47
2023-01-03T08:06:23.066Z,102333.75
2023-01-03T08:09:10.324Z,102342.81
2023-01-03T08:11:55.767Z,102335.22
2023-01-03T08:14:26.219Z,102331.97
2023-01-03T08:16:53.876Z,102320.19
2023-01-03T08:19:20.394Z,102328.44
2023-01-03T08:21:46.879Z,102330.03
2023-01-03T08:24:13.299Z,102330.16
2023-01-03T08:26:39.838Z,102321.34
2023-01-03T08:29:07.144Z,102340.69
2023-01-03T08:31:37.666Z,102346.47
2023-01-03T08:34:13.787Z,102359.38
2023-01-03T08:36:49.625Z,102351.38
2023-01-03T08:39:20.772Z,102358.75
2023-01-03T08:41:52.424Z,102363.41
2023-01-03T08:44:18.894Z,102360.91
2023-01-03T08:46:51.247Z,102362.31
2023-01-03T08:49:19.172Z,102377.47
2023-01-03T08:51:45.862Z,102366.25
2023-01-03T08:54:12.449Z,102368.44
2023-01-03T08:56:39.772Z,102360.00
2023-01-03T08:59:06.581Z,102362.75
2023-01-03T09:01:33.788Z,102360.09
2023-01-03T09:04:00.438Z,102360.91
2023-01-03T09:06:27.115Z,102354.63
2023-01-03T09:08:53.562Z,102361.31
2023-01-03T09:11:20.071Z,102357.19
2023-01-03T09:13:46.565Z,102358.16
2023-01-03T09:16:14.009Z,102360.00
2023-01-03T09:18:41.315Z,102356.47
2023-01-03T09:21:08.311Z,102358.91
2023-01-03T09:23:36.273Z,102363.72
2023-01-03T09:26:03.111Z,102362.66
2023-01-03T09:28:30.122Z,102344.19
2023-01-03T09:30:57.397Z,102351.88
2023-01-03T09:33:24.065Z,102352.34
2023-01-03T09:35:52.862Z,102352.00
2023-01-03T09:38:19.570Z,102362.19
2023-01-03T09:40:47.355Z,102355.75
2023-01-03T09:43:24.992Z,102356.66
2023-01-03T09:46:01.322Z,102365.16
2023-01-03T09:48:33.440Z,102364.81
2023-01-03T09:51:21.217Z,102367.56
2023-01-03T09:54:05.585Z,102373.31
2023-01-03T09:56:51.000Z,102370.06
2023-01-03T09:59:36.819Z,102373.72
2023-01-03T10:02:40.385Z,102379.25
2023-01-03T10:05:32.834Z,102378.91
2023-01-03T10:08:11.226Z,102386.25
2023-01-03T10:10:56.412Z,102371.72
2023-01-03T10:14:00.667Z,102385.25
2023-01-03T10:16:34.499Z,102369.66
2023-01-03T10:19:11.950Z,102374.06
2023-01-03T10:21:44.805Z,102374.22
2023-01-03T10:24:24.674Z,102372.78
2023-01-03T10:27:04.965Z,102371.53
2023-01-03T10:29:31.445Z,102374.84
2023-01-03T10:31:57.880Z,102376.13
2023-01-03T10:34:24.551Z,102365.47
2023-01-03T10:36:50.987Z,102370.19
2023-01-03T10:39:28.820Z,102363.94
2023-01-03T10:41:58.734Z,102361.28
2023-01-03T10:44:30.479Z,102354.41
2023-01-03T10:47:09.932Z,102359.59
2023-01-03T10:49:36.438Z,102353.25
2023-01-03T10:52:14.439Z,102364.66
2023-01-03T10:54:40.867Z,102341.81
2023-01-03T10:57:07.444Z,102340.56
2023-01-03T10:59:34.904Z,102334.16
2023-01-03T11:02:15.050Z,102344.88
2023-01-03T11:04:42.983Z,102337.63
2023-01-03T11:07:09.473Z,102331.94
2023-01-03T11:09:50.428Z,102342.47
2023-01-03T11:12:40.300Z,102347.63
2023-01-03T11:15:25.389Z,102335.22
2023-01-03T11:17:58.174Z,102342.53
2023-01-03T11:20:41.219Z,102343.63
2023-01-03T11:23:28.263Z,102339.75
2023-01-03T11:26:06.729Z,102340.22
2023-01-03T11:29:08.893Z,102334.78
2023-01-03T11:31:49.188Z,102350.31
2023-01-03T11:35:20.902Z,102340.88
2023-01-03T11:37:35.033Z,102330.94
2023-01-03T11:40:42.715Z,102332.47
2023-01-03T11:43:18.522Z,102329.78
2023-01-03T11:45:49.157Z,102338.44
2023-01-03T11:48:33.360Z,102325.31
2023-01-03T11:51:18.961Z,102326.75
2023-01-03T11:53:55.843Z,102328.44
2023-01-03T11:56:28.744Z,102324.88
2023-01-03T11:58:58.197Z,102319.44
2023-01-03T12:01:41.606Z,102315.84
2023-01-03T12:04:17.132Z,102311.66
2023-01-03T12:06:51.442Z,102312.19
2023-01-03T12:09:36.698Z,102306.75
2023-01-03T12:12:31.696Z,102317.09
2023-01-03T12:15:02.770Z,102310.16
2023-01-03T12:17:38.782Z,102313.28
2023-01-03T12:20:16.756Z,102310.41
2023-01-03T12:22:47.860Z,102304.06
2023-01-03T12:25:37.786Z,102304.19
2023-01-03T12:28:10.427Z,102312.66
2023-01-03T12:30:42.950Z,102314.06
2023-01-03T12:33:25.351Z,102291.38
2023-01-03T12:36:22.645Z,102306.28
2023-01-03T12:39:01.783Z,102295.13
2023-01-03T12:41:46.135Z,102287.41
2023-01-03T12:44:24.715Z,102285.88
2023-01-03T12:46:55.070Z,102281.50
2023-01-03T12:49:28.875Z,102281.03
2023-01-03T12:51:55.321Z,102284.75
2023-01-03T12:54:27.907Z,102284.78
2023-01-03T12:57:30.126Z,102286.59
2023-01-03T13:00:11.009Z,102284.09
2023-01-03T13:02:49.959Z,102275.53
2023-01-03T13:05:20.344Z,102275.03
2023-01-03T13:07:55.601Z,102265.34
2023-01-03T13:10:25.366Z,102265.81
2023-01-03T13:12:55.260Z,102254.69
2023-01-03T13:15:36.569Z,102251.25
2023-01-03T13:18:21.989Z,102249.81
2023-01-03T13:20:57.962Z,102264.31
2023-01-03T13:23:35.231Z,102251.91
2023-01-03T13:26:07.395Z,102255.13
2023-01-03T13:28:36.378Z,102245.50
2023-01-03T13:31:18.131Z,102247.88
2023-01-03T13:33:55.555Z,102257.03
2023-01-03T13:36:23.787Z,102261.13
2023-01-03T13:38:51.077Z,102245.69
2023-01-03T13:41:37.669Z,102250.00
2023-01-03T13:44:21.165Z,102253.84
2023-01-03T13:46:49.868Z,102243.34
2023-01-03T13:49:25.657Z,102251.53
2023-01-03T13:51:54.728Z,102249.13
2023-01-03T13:54:21.106Z,102260.19
2023-01-03T13:56:47.664Z,102253.56
2023-01-03T13:59:14.038Z,102238.94
2023-01-03T14:01:59.118Z,102237.44
2023-01-03T14:04:40.763Z,102245.41
2023-01-03T14:07:48.461Z,102247.38
2023-01-03T14:10:45.510Z,102246.69
2023-01-03T14:13:27.223Z,102252.78
2023-01-03T14:16:23.360Z,102245.13
2023-01-03T14:19:18.105Z,102249.34
2023-01-03T14:21:53.256Z,102260.06
2023-01-03T14:24:26.562Z,102245.16
2023-01-03T14:26:54.352Z,102258.50
2023-01-03T14:29:23.573Z,102246.97
2023-01-03T14:31:55.747Z,102255.47
2023-01-03T14:34:27.731Z,102248.34
2023-01-03T14:37:00.985Z,102249.13
2023-01-03T14:41:59.958Z,102246.28
2023-01-03T14:44:28.533Z,102255.94
2023-01-03T14:46:58.699Z,102255.06
2023-01-03T14:49:50.232Z,102258.59
2023-01-03T14:52:38.381Z,102262.81
2023-01-03T14:55:08.201Z,102264.72
2023-01-03T14:57:39.046Z,102271.28
2023-01-03T15:00:07.860Z,102274.78
2023-01-03T15:02:38.578Z,102263.66
2023-01-03T15:05:35.301Z,102264.72
2023-01-03T15:08:28.105Z,102279.94
2023-01-03T15:10:56.730Z,102273.44
2023-01-03T15:13:29.584Z,102271.97
2023-01-03T15:15:58.846Z,102280.22
2023-01-03T15:18:28.505Z,102272.78
2023-01-03T15:20:56.463Z,102275.63
2023-01-03T15:23:35.646Z,102281.97
2023-01-03T15:26:02.517Z,102282.69
2023-01-03T15:28:48.569Z,102276.59
2023-01-03T15:31:24.077Z,102277.00
2023-01-03T15:34:18.397Z,102281.09
2023-01-03T15:36:49.271Z,102280.84
2023-01-03T15:39:19.569Z,102282.94
2023-01-03T15:42:42.342Z,102285.72
2023-01-03T15:44:52.573Z,102274.63
2023-01-03T15:47:20.692Z,102279.31
2023-01-03T15:49:51.851Z,102277.59
2023-01-03T15:52:19.090Z,102283.47
2023-01-03T15:54:46.885Z,102280.84
2023-01-03T15:57:17.679Z,102272.88
2023-01-03T15:59:44.267Z,102278.88
2023-01-03T16:02:16.870Z,102266.88
2023-01-03T16:04:45.506Z,102272.38
2023-01-03T16:07:12.555Z,102263.97
2023-01-03T16:09:39.128Z,102267.53
2023-01-03T16:12:11.417Z,102256.94
2023-01-03T16:14:40.871Z,102250.97
2023-01-03T16:17:08.590Z,102258.03
2023-01-03T16:19:35.166Z,102248.41
2023-01-03T16:24:51.620Z,102241.44
2023-01-03T16:27:21.916Z,102247.06
2023-01-03T16:29:48.457Z,102242.50
2023-01-03T16:32:20.865Z,102252.88
2023-01-03T16:34:47.790Z,102250.44
2023-01-03T16:37:14.287Z,102249.75
2023-01-03T16:39:47.463Z,102254.47
2023-01-03T16:42:15.147Z,102256.56
2023-01-03T16:44:44.022Z,102262.28
2023-01-03T16:47:24.438Z,102248.97
2023-01-03T16:49:55.257Z,102248.25
2023-01-03T16:52:26.150Z,102245.50
2023-01-03T16:54:53.836Z,102233.00
2023-01-03T16:57:21.960Z,102240.41
2023-01-03T16:59:49.082Z,102243.25
2023-01-03T17:02:16.030Z,102247.66
2023-01-03T17:04:42.711Z,102238.91
2023-01-03T17:07:19.175Z,102245.13
2023-01-03T17:09:47.951Z,102247.34
2023-01-03T17:12:23.007Z,102250.81
2023-01-03T17:14:50.280Z,102242.63
2023-01-03T17:17:19.386Z,102245.66
2023-01-03T17:22:32.892Z,102245.22
2023-01-03T17:24:59.421Z,102250.97
2023-01-03T17:27:32.028Z,102244.66
2023-01-03T17:30:02.933Z,102255.06
2023-01-03T17:32:30.047Z,102232.16
2023-01-03T17:34:56.570Z,102247.41
2023-01-03T17:37:23.905Z,102242.22
2023-01-03T17:39:57.047Z,102250.28
2023-01-03T17:42:25.593Z,102252.78
2023-01-03T17:45:11.179Z,102259.03
2023-01-03T17:47:59.783Z,102247.31
2023-01-03T17:50:29.234Z,102245.47
2023-01-03T17:52:58.623Z,102234.28
2023-01-03T17:55:28.883Z,102235.09
2023-01-03T17:57:57.133Z,102224.88
2023-01-03T18:00:27.042Z,102234.75
2023-01-03T18:02:55.384Z,102234.06
2023-01-03T18:05:28.020Z,102230.94
2023-01-03T18:08:01.129Z,102236.00
2023-01-03T18:10:32.212Z,102238.31
2023-01-03T18:12:58.983Z,102239.81
2023-01-03T18:15:25.500Z,102236.69
2023-01-03T18:17:52.592Z,102229.84
2023-01-03T18:20:19.685Z,102230.19
2023-01-03T18:22:47.200Z,102228.41
2023-01-03T18:25:24.589Z,102229.50
2023-01-03T18:27:56.386Z,102234.09
2023-01-03T18:30:22.919Z,102227.09
2023-01-03T18:32:49.531Z,102223.41
2023-01-03T18:35:22.498Z,102224.75
2023-01-03T18:37:54.737Z,102221.28
2023-01-03T18:40:27.644Z,102221.47
2023-01-03T18:43:10.754Z,102212.75
2023-01-03T18:45:39.178Z,102205.97
2023-01-03T18:48:06.096Z,102203.31
2023-01-03T18:50:33.163Z,102190.47
2023-01-03T18:53:04.086Z,102187.25
2023-01-03T18:55:33.652Z,102183.84
2023-01-03T18:58:07.744Z,102186.19
2023-01-03T19:00:34.286Z,102188.44
2023-01-03T19:03:01.155Z,102177.09
2023-01-03T19:05:27.873Z,102176.22
2023-01-03T19:07:54.638Z,102158.63
2023-01-03T19:10:27.313Z,102159.78
2023-01-03T19:12:56.522Z,102157.84
2023-01-03T19:15:29.169Z,102154.28
2023-01-03T19:18:01.293Z,102148.75
2023-01-03T19:20:28.061Z,102149.91
2023-01-03T19:22:55.169Z,102135.75
2023-01-03T19:25:30.219Z,102143.56
2023-01-03T19:28:02.097Z,102131.47
2023-01-03T19:30:37.781Z,102120.22
2023-01-03T19:33:06.782Z,102128.22
2023-01-03T19:35:33.723Z,102126.63
2023-01-03T19:38:00.233Z,102120.47
2023-01-03T19:40:30.977Z,102114.34
2023-01-03T19:42:58.855Z,102121.47
2023-01-03T19:45:26.368Z,102114.41
2023-01-03T19:47:53.779Z,102104.00
2023-01-03T19:50:28.581Z,102101.31
2023-01-03T19:52:55.948Z,102100.00
2023-01-03T19:55:29.324Z,102116.56
2023-01-03T19:57:57.999Z,102104.88
2023-01-03T20:00:32.140Z,102105.53
2023-01-03T20:03:03.219Z,102097.66
2023-01-03T20:05:35.404Z,102111.75
2023-01-03T20:08:11.234Z,102103.28
2023-01-03T20:10:40.425Z,102099.72
2023-01-03T20:13:06.994Z,102096.13
2023-01-03T20:15:40.654Z,102098.53
2023-01-03T20:18:31.459Z,102106.94
2023-01-03T20:21:01.700Z,102108.09
2023-01-03T20:23:32.984Z,102109.34
2023-01-03T20:25:59.517Z,102096.59
2023-01-03T20:28:29.563Z,102095.06
2023-01-03T20:30:57.558Z,102089.19
2023-01-03T20:33:25.329Z,102095.34
2023-01-03T20:36:16.075Z,102087.94
2023-01-03T20:38:44.415Z,102075.03
2023-01-03T20:41:13.162Z,102059.97
2023-01-03T20:43:39.669Z,102055.16
2023-01-03T20:46:06.554Z,102038.13
2023-01-03T20:48:33.110Z,102041.06
2023-01-03T20:50:59.609Z,102039.47
2023-01-03T20:53:27.103Z,102049.09
2023-01-03T20:55:54.102Z,102048.66
2023-01-03T20:58:25.203Z,102040.13
2023-01-03T21:00:56.714Z,102036.06
2023-01-03T21:03:28.322Z,102020.06
2023-01-03T21:05:56.188Z,102042.59
2023-01-03T21:08:41.416Z,102036.19
2023-01-03T21:11:07.901Z,102037.97
2023-01-03T21:13:34.403Z,102027.25
2023-01-03T21:16:00.880Z,102025.84
2023-01-03T21:18:27.641Z,102023.25
2023-01-03T21:20:54.115Z,102013.03
2023-01-03T21:23:23.322Z,102030.56
2023-01-03T21:25:50.069Z,102036.00
2023-01-03T21:28:16.543Z,102027.44
2023-01-03T21:30:43.251Z,102017.03
2023-01-03T21:33:17.106Z,102015.44
2023-01-03T21:35:43.662Z,102020.69
2023-01-03T21:38:10.884Z,102011.69
2023-01-03T21:40:37.469Z,102003.41
2023-01-03T21:43:05.036Z,102011.31
2023-01-03T21:45:34.752Z,102006.16
2023-01-03T21:48:03.147Z,101996.53
2023-01-03T21:50:30.645Z,102003.50
2023-01-03T21:52:57.811Z,101993.50
2023-01-03T21:55:25.102Z,101984.50
2023-01-03T21:57:52.048Z,101987.53
2023-01-03T22:00:18.966Z,101973.88
2023-01-03T22:03:04.618Z,101971.47
2023-01-03T22:05:31.611Z,101980.47
2023-01-03T22:07:58.156Z,101979.69
2023-01-03T22:10:25.156Z,101966.97
2023-01-03T22:12:54.321Z,101968.00
2023-01-03T22:15:21.452Z,101958.94
2023-01-03T22:17:48.279Z,101960.00
2023-01-03T22:20:16.952Z,101960.06
2023-01-03T22:22:44.766Z,101960.72
2023-01-03T22:25:13.968Z,101958.19
2023-01-03T22:27:40.416Z,101958.19
2023-01-03T22:30:09.269Z,101947.75
2023-01-03T22:32:35.757Z,101949.53
2023-01-03T22:35:02.369Z,101937.88
2023-01-03T22:37:28.871Z,101937.72
2023-01-03T22:39:55.430Z,101914.59
2023-01-03T22:42:21.934Z,101938.22
2023-01-03T22:44:48.736Z,101945.19
2023-01-03T22:47:15.948Z,101930.00
2023-01-03T22:49:42.629Z,101921.00
2023-01-03T22:52:09.162Z,101930.97
2023-01-03T22:54:35.707Z,101928.56
2023-01-03T22:57:02.377Z,101921.00
2023-01-03T22:59:30.435Z,101909.53
2023-01-03T23:01:58.130Z,101887.13
2023-01-03T23:04:26.460Z,101888.16
2023-01-03T23:06:53.866Z,101884.00
2023-01-03T23:09:21.463Z,101878.06
2023-01-03T23:12:07.722Z,101880.38
2023-01-03T23:14:34.364Z,101878.25
2023-01-03T23:17:23.744Z,101876.22
2023-01-03T23:19:50.327Z,101871.56
2023-01-03T23:22:17.435Z,101849.03
2023-01-03T23:24:44.006Z,101869.09
2023-01-03T23:27:10.491Z,101868.66
2023-01-03T23:29:37.097Z,101856.59
2023-01-03T23:32:03.758Z,101839.53
2023-01-03T23:34:30.482Z,101849.03
2023-01-03T23:36:56.974Z,101837.69
2023-01-03T23:39:23.549Z,101835.56
2023-01-03T23:41:50.077Z,101846.91
2023-01-03T23:44:16.858Z,101844.25
2023-01-03T23:46:43.429Z,101842.94
2023-01-03T23:49:12.349Z,101835.34
2023-01-03T23:51:38.928Z,101829.09
2023-01-03T23:54:05.728Z,101818.91
2023-01-03T23:56:32.316Z,101816.28
2023-01-03T23:58:58.853Z,101813.84
